createdAt,value
2019-03-30T00:00:33.329Z,66.41
2019-03-30T00:03:06.041Z,66.57
2019-03-30T00:05:38.897Z,66.57
2019-03-30T00:08:14.521Z,66.64
2019-03-30T00:10:49.261Z,66.72
2019-03-30T00:13:21.815Z,66.48
2019-03-30T00:15:54.618Z,66.59
2019-03-30T00:18:27.191Z,66.82
2019-03-30T00:21:00.083Z,66.51
2019-03-30T00:23:32.735Z,66.49
2019-03-30T00:26:07.234Z,66.47
2019-03-30T00:28:39.781Z,66.42
2019-03-30T00:31:12.404Z,66.64
2019-03-30T00:33:47.392Z,66.48
2019-03-30T00:36:20.144Z,66.26
2019-03-30T00:38:52.715Z,66.24
2019-03-30T00:41:25.627Z,66.08
2019-03-30T00:43:58.334Z,65.99
2019-03-30T00:46:33.517Z,66.06
2019-03-30T00:49:07.513Z,66.04
2019-03-30T00:51:40.545Z,65.89
2019-03-30T00:54:13.170Z,65.94
2019-03-30T00:56:46.015Z,65.67
2019-03-30T00:59:19.709Z,65.56
2019-03-30T01:01:52.593Z,65.57
2019-03-30T01:04:25.245Z,65.66
2019-03-30T01:06:59.459Z,65.54
2019-03-30T01:09:35.021Z,65.44
2019-03-30T01:12:12.833Z,65.43
2019-03-30T01:14:45.436Z,65.37
2019-03-30T01:17:18.303Z,65.32
2019-03-30T01:20:02.283Z,65.33
2019-03-30T01:22:25.614Z,65.28
2019-03-30T01:24:58.248Z,65.21
2019-03-30T01:27:30.900Z,65.27
2019-03-30T01:30:03.461Z,65.16
2019-03-30T01:32:37.457Z,65.14
2019-03-30T01:35:10.579Z,65.21
2019-03-30T01:37:43.452Z,65.08
2019-03-30T01:40:15.981Z,65.05
2019-03-30T01:42:51.866Z,65.09
2019-03-30T01:45:24.431Z,65.09
2019-03-30T01:47:57.239Z,64.85
2019-03-30T01:50:29.807Z,64.85
2019-03-30T01:53:02.693Z,64.84
2019-03-30T01:55:35.257Z,64.89
2019-03-30T01:58:09.285Z,64.84
2019-03-30T02:00:41.840Z,64.88
2019-03-30T02:03:14.847Z,64.90
2019-03-30T02:05:47.603Z,64.87
2019-03-30T02:08:21.668Z,64.79
2019-03-30T02:10:54.248Z,64.80
2019-03-30T02:13:27.104Z,64.80
2019-03-30T02:16:00.163Z,64.66
2019-03-30T02:18:33.181Z,64.70
2019-03-30T02:21:05.721Z,64.69
2019-03-30T02:23:39.045Z,64.59
2019-03-30T02:26:11.678Z,64.58
2019-03-30T02:28:44.413Z,64.67
2019-03-30T02:31:17.036Z,64.71
2019-03-30T02:33:49.793Z,64.50
2019-03-30T02:36:22.719Z,64.46
2019-03-30T02:38:55.850Z,64.44
2019-03-30T02:41:28.422Z,64.48
2019-03-30T02:44:01.313Z,64.51
2019-03-30T02:46:33.981Z,64.52
2019-03-30T02:49:06.889Z,64.54
2019-03-30T02:51:39.560Z,64.62
2019-03-30T02:54:13.921Z,64.43
2019-03-30T02:56:46.484Z,64.48
2019-03-30T02:59:19.351Z,64.45
2019-03-30T03:01:51.944Z,64.46
2019-03-30T03:04:26.337Z,64.50
2019-03-30T03:07:01.909Z,64.41
2019-03-30T03:09:35.090Z,64.46
2019-03-30T03:12:09.002Z,64.51
2019-03-30T03:14:41.615Z,64.56
2019-03-30T03:17:14.223Z,64.50
2019-03-30T03:19:46.835Z,64.57
2019-03-30T03:22:19.503Z,64.55
2019-03-30T03:24:53.014Z,64.52
2019-03-30T03:27:25.600Z,64.57
2019-03-30T03:29:58.377Z,64.58
2019-03-30T03:32:31.013Z,64.64
2019-03-30T03:35:03.701Z,64.66
2019-03-30T03:37:44.654Z,64.67
2019-03-30T03:40:17.511Z,64.77
2019-03-30T03:42:50.102Z,64.80
2019-03-30T03:45:23.007Z,64.88
2019-03-30T03:47:55.631Z,64.84
2019-03-30T03:50:50.165Z,64.91
2019-03-30T03:53:22.699Z,64.97
2019-03-30T03:56:02.565Z,64.93
2019-03-30T03:58:37.622Z,64.83
2019-03-30T04:01:10.888Z,64.75
2019-03-30T04:03:46.568Z,64.84
2019-03-30T04:06:25.447Z,64.88
2019-03-30T04:09:02.618Z,64.81
2019-03-30T04:11:36.083Z,64.79
2019-03-30T04:14:12.054Z,64.79
2019-03-30T04:16:44.751Z,64.70
2019-03-30T04:19:17.325Z,64.79
2019-03-30T04:21:50.276Z,64.61
2019-03-30T04:24:24.177Z,64.53
2019-03-30T04:26:59.405Z,64.50
2019-03-30T04:29:31.984Z,64.46
2019-03-30T04:34:34.597Z,64.46
2019-03-30T04:37:07.421Z,64.37
2019-03-30T04:39:40.055Z,64.42
2019-03-30T04:42:14.837Z,64.11
2019-03-30T04:44:47.668Z,63.85
2019-03-30T04:47:20.298Z,63.78
2019-03-30T04:49:52.981Z,63.59
2019-03-30T04:52:28.655Z,63.43
2019-03-30T04:55:01.555Z,63.12
2019-03-30T04:57:34.370Z,63.12
2019-03-30T05:00:08.153Z,63.32
2019-03-30T05:02:40.745Z,63.40
2019-03-30T05:05:15.544Z,63.47
2019-03-30T05:07:50.012Z,63.40
2019-03-30T05:10:24.406Z,63.28
2019-03-30T05:12:57.304Z,63.17
2019-03-30T05:15:30.135Z,63.18
2019-03-30T05:18:02.819Z,63.08
2019-03-30T05:20:35.839Z,62.69
2019-03-30T05:23:08.420Z,62.59
2019-03-30T05:25:41.086Z,62.59
2019-03-30T05:28:14.120Z,62.63
2019-03-30T05:30:49.694Z,62.70
2019-03-30T05:33:22.282Z,62.68
2019-03-30T05:35:55.219Z,62.73
2019-03-30T05:38:27.831Z,62.75
2019-03-30T05:41:00.591Z,62.17
2019-03-30T05:43:38.034Z,61.93
2019-03-30T05:46:11.248Z,62.01
2019-03-30T05:48:43.825Z,62.02
2019-03-30T05:51:16.607Z,62.03
2019-03-30T05:53:49.231Z,62.13
2019-03-30T05:56:22.099Z,62.16
2019-03-30T05:58:54.879Z,62.04
2019-03-30T06:01:27.732Z,61.91
2019-03-30T06:04:02.649Z,61.61
2019-03-30T06:06:36.648Z,61.64
2019-03-30T06:09:09.828Z,61.64
2019-03-30T06:11:42.470Z,61.55
2019-03-30T06:14:18.156Z,61.95
2019-03-30T06:16:50.770Z,61.86
2019-03-30T06:19:23.385Z,61.75
2019-03-30T06:21:55.995Z,61.55
2019-03-30T06:24:30.943Z,61.49
2019-03-30T06:27:03.763Z,61.20
2019-03-30T06:29:36.446Z,61.00
2019-03-30T06:32:09.115Z,60.86
2019-03-30T06:34:41.753Z,60.65
2019-03-30T06:37:17.615Z,60.58
2019-03-30T06:39:50.200Z,60.67
2019-03-30T06:42:23.106Z,60.49
2019-03-30T06:44:56.038Z,60.30
2019-03-30T06:47:28.767Z,60.19
2019-03-30T06:50:01.411Z,59.97
2019-03-30T06:52:34.065Z,59.89
2019-03-30T06:55:08.458Z,59.32
2019-03-30T06:57:41.135Z,59.14
2019-03-30T07:00:15.711Z,58.66
2019-03-30T07:02:49.561Z,58.80
2019-03-30T07:05:23.242Z,58.85
2019-03-30T07:07:56.010Z,58.79
2019-03-30T07:10:28.647Z,58.49
2019-03-30T07:13:03.996Z,58.28
2019-03-30T07:15:44.246Z,58.14
2019-03-30T07:18:17.651Z,58.17
2019-03-30T07:20:52.389Z,57.99
2019-03-30T07:23:26.069Z,58.11
2019-03-30T07:25:58.740Z,58.10
2019-03-30T07:28:31.647Z,57.84
2019-03-30T07:31:04.253Z,57.51
2019-03-30T07:33:39.959Z,57.23
2019-03-30T07:36:12.571Z,57.42
2019-03-30T07:38:45.318Z,57.13
2019-03-30T07:41:18.048Z,57.18
2019-03-30T07:43:54.081Z,57.25
2019-03-30T07:46:26.953Z,56.50
2019-03-30T07:48:59.846Z,56.54
2019-03-30T07:51:33.769Z,56.26
2019-03-30T07:54:06.669Z,56.15
2019-03-30T07:56:43.791Z,56.29
2019-03-30T07:59:16.547Z,56.27
2019-03-30T08:01:49.365Z,56.43
2019-03-30T08:04:21.953Z,56.35
2019-03-30T08:06:57.175Z,56.68
2019-03-30T08:09:29.994Z,56.50
2019-03-30T08:12:02.806Z,56.52
2019-03-30T08:14:37.802Z,56.60
2019-03-30T08:17:10.818Z,56.89
2019-03-30T08:19:43.596Z,57.07
2019-03-30T08:22:16.199Z,56.51
2019-03-30T08:24:49.050Z,56.36
2019-03-30T08:27:21.690Z,56.12
2019-03-30T08:29:54.607Z,55.95
2019-03-30T08:32:27.411Z,56.56
2019-03-30T08:35:00.426Z,56.69
2019-03-30T08:37:33.097Z,56.00
2019-03-30T08:40:07.500Z,55.54
2019-03-30T08:42:40.375Z,55.06
2019-03-30T08:45:16.260Z,55.31
2019-03-30T08:47:49.153Z,55.54
2019-03-30T08:50:22.046Z,54.99
2019-03-30T08:52:54.721Z,55.84
2019-03-30T08:55:27.668Z,56.48
2019-03-30T08:58:00.301Z,55.60
2019-03-30T09:00:44.170Z,56.50
2019-03-30T09:03:16.783Z,56.29
2019-03-30T09:05:49.752Z,55.73
2019-03-30T09:08:22.503Z,56.30
2019-03-30T09:10:55.415Z,57.00
2019-03-30T09:13:28.044Z,56.08
2019-03-30T09:16:01.095Z,55.76
2019-03-30T09:18:34.085Z,54.65
2019-03-30T09:21:07.054Z,54.69
2019-03-30T09:23:39.743Z,53.86
2019-03-30T09:26:12.649Z,54.08
2019-03-30T09:28:45.359Z,54.50
2019-03-30T09:31:18.431Z,54.34
2019-03-30T09:33:51.222Z,53.58
2019-03-30T09:36:23.921Z,54.68
2019-03-30T09:38:56.530Z,53.64
2019-03-30T09:41:29.523Z,52.55
2019-03-30T09:44:02.121Z,52.88
2019-03-30T09:46:34.947Z,52.97
2019-03-30T09:49:07.592Z,53.05
2019-03-30T09:51:40.456Z,53.48
2019-03-30T09:54:23.574Z,52.37
2019-03-30T09:56:47.470Z,53.08
2019-03-30T09:59:20.217Z,52.10
2019-03-30T10:01:52.883Z,51.91
2019-03-30T10:04:25.641Z,53.17
2019-03-30T10:06:58.407Z,53.27
2019-03-30T10:09:31.118Z,51.56
2019-03-30T10:12:04.135Z,50.52
2019-03-30T10:14:36.799Z,52.29
2019-03-30T10:17:09.731Z,51.75
2019-03-30T10:19:42.409Z,49.24
2019-03-30T10:22:15.373Z,50.08
2019-03-30T10:24:48.054Z,50.56
2019-03-30T10:27:20.921Z,50.53
2019-03-30T10:29:53.512Z,49.49
2019-03-30T10:32:26.536Z,48.45
2019-03-30T10:34:59.673Z,48.69
2019-03-30T10:37:32.504Z,48.99
2019-03-30T10:40:05.518Z,49.20
2019-03-30T10:42:38.375Z,50.18
2019-03-30T10:45:11.378Z,49.68
2019-03-30T10:47:44.093Z,50.21
2019-03-30T10:50:17.207Z,48.76
2019-03-30T10:52:50.209Z,49.79
2019-03-30T10:55:22.866Z,49.25
2019-03-30T10:57:58.464Z,47.95
2019-03-30T11:00:43.382Z,48.65
2019-03-30T11:03:16.368Z,47.77
2019-03-30T11:05:49.327Z,48.79
2019-03-30T11:08:22.072Z,48.06
2019-03-30T11:10:54.821Z,48.15
2019-03-30T11:13:27.726Z,47.96
2019-03-30T11:16:00.774Z,49.38
2019-03-30T11:18:33.619Z,49.28
2019-03-30T11:21:06.693Z,50.77
2019-03-30T11:23:39.678Z,49.13
2019-03-30T11:26:12.884Z,48.99
2019-03-30T11:28:45.579Z,48.36
2019-03-30T11:31:18.253Z,47.34
2019-03-30T11:33:51.237Z,46.00
2019-03-30T11:36:24.240Z,45.41
2019-03-30T11:38:57.128Z,45.81
2019-03-30T11:41:29.921Z,45.18
2019-03-30T11:44:02.595Z,44.60
2019-03-30T11:46:35.356Z,45.22
2019-03-30T11:49:08.140Z,45.18
2019-03-30T11:51:41.228Z,44.66
2019-03-30T11:54:14.115Z,45.64
2019-03-30T11:56:46.851Z,45.22
2019-03-30T11:59:20.006Z,44.85
2019-03-30T12:01:52.776Z,43.23
2019-03-30T12:04:25.654Z,41.88
2019-03-30T12:06:58.304Z,43.14
2019-03-30T12:09:31.119Z,42.90
2019-03-30T12:12:03.804Z,42.85
2019-03-30T12:14:38.007Z,41.37
2019-03-30T12:17:10.625Z,40.20
2019-03-30T12:19:44.816Z,38.92
2019-03-30T12:22:17.449Z,40.02
2019-03-30T12:24:50.495Z,39.32
2019-03-30T12:27:23.128Z,38.16
2019-03-30T12:29:56.049Z,37.53
2019-03-30T12:32:28.671Z,38.36
2019-03-30T12:35:01.617Z,36.31
2019-03-30T12:37:34.543Z,33.67
2019-03-30T12:40:07.762Z,31.32
2019-03-30T12:42:40.742Z,30.17
2019-03-30T12:45:15.531Z,29.22
2019-03-30T12:47:48.705Z,28.27
2019-03-30T12:50:22.582Z,29.18
2019-03-30T12:52:55.727Z,29.98
2019-03-30T12:55:28.598Z,28.64
2019-03-30T12:58:01.210Z,24.92
2019-03-30T13:00:34.586Z,22.97
2019-03-30T13:03:07.318Z,23.36
2019-03-30T13:05:40.537Z,24.88
2019-03-30T13:08:13.799Z,23.65
2019-03-30T13:10:46.948Z,22.51
2019-03-30T13:13:19.908Z,21.45
2019-03-30T13:15:52.769Z,20.75
2019-03-30T13:18:25.377Z,18.61
2019-03-30T13:20:58.155Z,18.30
2019-03-30T13:23:31.110Z,19.16
2019-03-30T13:26:04.381Z,20.86
2019-03-30T13:28:37.183Z,19.06
2019-03-30T13:31:10.092Z,18.51
2019-03-30T13:33:42.706Z,17.82
2019-03-30T13:36:15.783Z,17.33
2019-03-30T13:38:48.793Z,18.60
2019-03-30T13:41:21.508Z,19.39
2019-03-30T13:43:54.260Z,18.05
2019-03-30T13:46:27.015Z,17.62
2019-03-30T13:48:59.623Z,16.61
2019-03-30T13:51:32.267Z,16.11
2019-03-30T13:54:05.219Z,17.87
2019-03-30T13:56:37.988Z,18.93
2019-03-30T13:59:10.626Z,19.50
2019-03-30T14:01:43.343Z,19.10
2019-03-30T14:04:15.929Z,20.42
2019-03-30T14:06:49.717Z,18.32
2019-03-30T14:09:23.805Z,16.32
2019-03-30T14:11:57.139Z,15.85
2019-03-30T14:14:29.872Z,16.49
2019-03-30T14:17:02.848Z,17.18
2019-03-30T14:19:35.515Z,17.88
2019-03-30T14:22:08.414Z,16.80
2019-03-30T14:24:41.010Z,17.81
2019-03-30T14:27:14.116Z,19.20
2019-03-30T14:29:46.784Z,19.56
2019-03-30T14:32:19.746Z,19.51
2019-03-30T14:34:52.338Z,19.07
2019-03-30T14:37:25.031Z,17.61
2019-03-30T14:39:58.004Z,17.25
2019-03-30T14:42:30.984Z,17.60
2019-03-30T14:45:03.619Z,19.20
2019-03-30T14:47:36.342Z,20.17
2019-03-30T14:50:10.189Z,19.94
2019-03-30T14:52:43.952Z,19.87
2019-03-30T14:55:16.702Z,24.11
2019-03-30T14:57:49.423Z,22.84
2019-03-30T15:00:22.381Z,22.19
2019-03-30T15:02:55.682Z,23.39
2019-03-30T15:05:28.361Z,26.02
2019-03-30T15:08:01.178Z,26.86
2019-03-30T15:10:34.286Z,30.11
2019-03-30T15:13:07.134Z,30.54
2019-03-30T15:15:39.784Z,30.03
2019-03-30T15:18:12.737Z,31.95
2019-03-30T15:20:45.410Z,31.93
2019-03-30T15:23:18.183Z,29.80
2019-03-30T15:25:52.260Z,29.02
2019-03-30T15:28:25.163Z,31.16
2019-03-30T15:30:57.795Z,31.13
2019-03-30T15:33:30.440Z,31.05
2019-03-30T15:36:03.118Z,31.64
2019-03-30T15:38:36.122Z,31.69
2019-03-30T15:41:09.248Z,32.08
2019-03-30T15:43:42.198Z,34.51
2019-03-30T15:46:14.829Z,34.02
2019-03-30T15:48:47.641Z,34.75
2019-03-30T15:51:20.435Z,35.32
2019-03-30T15:53:53.435Z,35.74
2019-03-30T15:56:26.573Z,37.01
2019-03-30T15:58:59.602Z,37.50
2019-03-30T16:01:32.226Z,38.65
2019-03-30T16:04:05.167Z,38.66
2019-03-30T16:06:37.807Z,39.64
2019-03-30T16:09:10.729Z,38.84
2019-03-30T16:11:43.468Z,39.46
2019-03-30T16:14:16.313Z,39.56
2019-03-30T16:16:49.003Z,39.13
2019-03-30T16:19:21.674Z,38.81
2019-03-30T16:21:54.338Z,39.46
2019-03-30T16:24:30.045Z,39.43
2019-03-30T16:27:02.127Z,39.83
2019-03-30T16:29:34.879Z,39.99
2019-03-30T16:32:07.518Z,40.46
2019-03-30T16:34:40.388Z,40.98
2019-03-30T16:37:13.062Z,41.77
2019-03-30T16:39:46.073Z,42.01
2019-03-30T16:42:19.078Z,42.61
2019-03-30T16:44:52.049Z,43.08
2019-03-30T16:47:24.682Z,43.22
2019-03-30T16:49:57.707Z,44.24
2019-03-30T16:52:30.345Z,45.18
2019-03-30T16:55:03.205Z,46.06
2019-03-30T16:57:42.992Z,46.44
2019-03-30T17:00:12.327Z,46.93
2019-03-30T17:02:45.108Z,47.71
2019-03-30T17:05:17.987Z,48.65
2019-03-30T17:07:50.827Z,49.41
2019-03-30T17:10:23.633Z,50.19
2019-03-30T17:12:56.340Z,50.40
2019-03-30T17:15:29.152Z,50.66
2019-03-30T17:18:01.749Z,51.33
2019-03-30T17:20:34.701Z,51.82
2019-03-30T17:23:07.316Z,52.25
2019-03-30T17:25:40.268Z,52.51
2019-03-30T17:28:12.946Z,52.91
2019-03-30T17:30:46.025Z,53.39
2019-03-30T17:33:18.758Z,53.58
2019-03-30T17:35:51.564Z,53.85
2019-03-30T17:38:24.383Z,54.14
2019-03-30T17:40:57.243Z,54.70
2019-03-30T17:43:30.502Z,55.02
2019-03-30T17:46:03.267Z,55.37
2019-03-30T17:48:36.044Z,55.32
2019-03-30T17:51:09.232Z,55.56
2019-03-30T17:53:41.986Z,55.69
2019-03-30T17:56:14.898Z,55.67
2019-03-30T17:58:47.749Z,55.76
2019-03-30T18:01:20.494Z,55.84
2019-03-30T18:03:54.414Z,56.06
2019-03-30T18:06:27.069Z,56.42
2019-03-30T18:08:59.688Z,56.77
2019-03-30T18:11:32.476Z,56.89
2019-03-30T18:14:05.478Z,57.08
2019-03-30T18:16:38.317Z,57.32
2019-03-30T18:19:11.144Z,57.49
2019-03-30T18:21:44.037Z,57.58
2019-03-30T18:24:16.867Z,57.89
2019-03-30T18:26:49.829Z,58.23
2019-03-30T18:29:22.970Z,58.57
2019-03-30T18:31:56.002Z,58.58
2019-03-30T18:34:29.952Z,58.82
2019-03-30T18:37:03.854Z,59.19
2019-03-30T18:39:37.015Z,59.49
2019-03-30T18:42:10.015Z,59.67
2019-03-30T18:44:44.173Z,59.82
2019-03-30T18:47:17.226Z,60.13
2019-03-30T18:49:49.845Z,60.25
2019-03-30T18:52:23.070Z,60.39
2019-03-30T18:54:56.938Z,60.55
2019-03-30T18:57:29.967Z,60.74
2019-03-30T19:00:02.971Z,60.82
2019-03-30T19:02:36.053Z,61.09
2019-03-30T19:05:09.169Z,61.23
2019-03-30T19:07:42.226Z,61.47
2019-03-30T19:10:14.958Z,61.58
2019-03-30T19:12:47.792Z,61.72
2019-03-30T19:15:20.658Z,61.80
2019-03-30T19:17:53.400Z,61.91
2019-03-30T19:20:26.110Z,62.05
2019-03-30T19:22:58.771Z,62.28
2019-03-30T19:25:31.444Z,62.50
2019-03-30T19:28:04.083Z,62.59
2019-03-30T19:30:36.944Z,62.72
2019-03-30T19:33:09.786Z,62.79
2019-03-30T19:35:42.470Z,62.81
2019-03-30T19:38:15.222Z,62.96
2019-03-30T19:40:47.861Z,63.09
2019-03-30T19:43:20.860Z,63.20
2019-03-30T19:45:53.686Z,63.27
2019-03-30T19:48:26.495Z,63.38
2019-03-30T19:50:59.298Z,63.48
2019-03-30T19:53:32.312Z,63.71
2019-03-30T19:56:05.870Z,63.73
2019-03-30T19:58:38.949Z,63.85
2019-03-30T20:01:12.153Z,63.87
2019-03-30T20:03:44.982Z,63.83
2019-03-30T20:06:17.650Z,63.83
2019-03-30T20:08:50.446Z,63.88
2019-03-30T20:11:23.260Z,63.93
2019-03-30T20:13:55.943Z,64.22
2019-03-30T20:16:28.622Z,64.27
2019-03-30T20:19:12.098Z,64.29
2019-03-30T20:21:36.045Z,64.29
2019-03-30T20:24:09.650Z,64.27
2019-03-30T20:26:42.785Z,64.34
2019-03-30T20:29:25.233Z,64.41
2019-03-30T20:31:52.379Z,64.49
2019-03-30T20:34:25.702Z,64.53
2019-03-30T20:36:58.465Z,64.67
2019-03-30T20:39:31.338Z,64.73
2019-03-30T20:42:04.008Z,64.73
2019-03-30T20:44:37.091Z,64.78
2019-03-30T20:47:10.246Z,64.83
2019-03-30T20:49:43.113Z,64.92
2019-03-30T20:52:16.245Z,64.88
2019-03-30T20:54:49.199Z,64.88
2019-03-30T20:57:21.937Z,64.81
2019-03-30T20:59:54.781Z,64.93
2019-03-30T21:02:27.785Z,64.98
2019-03-30T21:05:00.415Z,64.93
2019-03-30T21:07:33.293Z,65.18
2019-03-30T21:10:07.751Z,65.38
2019-03-30T21:12:41.699Z,65.45
2019-03-30T21:15:15.649Z,65.53
2019-03-30T21:17:48.697Z,65.78
2019-03-30T21:20:21.584Z,65.82
2019-03-30T21:22:54.297Z,65.82
2019-03-30T21:25:27.201Z,65.78
2019-03-30T21:27:59.864Z,66.01
2019-03-30T21:30:32.915Z,66.02
2019-03-30T21:33:05.674Z,65.99
2019-03-30T21:35:38.455Z,66.03
2019-03-30T21:38:11.224Z,66.18
2019-03-30T21:40:43.926Z,66.24
2019-03-30T21:43:19.538Z,66.29
2019-03-30T21:45:51.069Z,66.40
2019-03-30T21:48:24.353Z,66.42
2019-03-30T21:50:57.034Z,66.30
2019-03-30T21:53:29.855Z,66.33
2019-03-30T21:56:02.719Z,66.42
2019-03-30T21:58:35.385Z,66.58
2019-03-30T22:01:08.339Z,66.52
2019-03-30T22:03:41.978Z,66.48
2019-03-30T22:06:14.953Z,66.59
2019-03-30T22:08:49.353Z,66.64
2019-03-30T22:11:22.342Z,66.74
2019-03-30T22:13:55.035Z,66.68
2019-03-30T22:16:28.010Z,66.69
2019-03-30T22:19:01.025Z,66.83
2019-03-30T22:21:33.993Z,66.90
2019-03-30T22:24:06.598Z,67.04
2019-03-30T22:26:39.755Z,67.14
2019-03-30T22:29:15.427Z,67.20
2019-03-30T22:31:48.298Z,67.16
2019-03-30T22:34:23.308Z,67.13
2019-03-30T22:36:56.215Z,67.17
2019-03-30T22:39:28.968Z,67.16
2019-03-30T22:42:01.914Z,67.31
2019-03-30T22:44:34.455Z,67.40
2019-03-30T22:47:07.293Z,67.46
2019-03-30T22:49:39.910Z,67.41
2019-03-30T22:52:12.824Z,67.50
2019-03-30T22:54:46.494Z,67.54
2019-03-30T22:57:19.214Z,67.41
2019-03-30T22:59:51.826Z,67.52
2019-03-30T23:02:24.515Z,67.63
2019-03-30T23:04:57.134Z,67.70
2019-03-30T23:07:32.142Z,67.73
2019-03-30T23:10:05.584Z,67.73
2019-03-30T23:12:38.272Z,67.81
2019-03-30T23:15:10.994Z,67.85
2019-03-30T23:17:43.639Z,67.91
2019-03-30T23:20:16.783Z,67.93
2019-03-30T23:22:50.840Z,67.92
2019-03-30T23:25:23.468Z,67.92
2019-03-30T23:27:59.768Z,68.06
2019-03-30T23:30:32.417Z,68.28
2019-03-30T23:33:05.318Z,68.37
2019-03-30T23:35:38.070Z,68.43
2019-03-30T23:38:10.983Z,68.32
2019-03-30T23:40:43.567Z,68.36
2019-03-30T23:43:16.349Z,68.37
2019-03-30T23:45:48.942Z,68.36
2019-03-30T23:48:24.827Z,68.47
2019-03-30T23:50:57.959Z,68.34
2019-03-30T23:53:30.652Z,68.48
2019-03-30T23:56:03.444Z,68.53
2019-03-30T23:58:36.092Z,68.54
